Time;durP1;ratioP1;P1;durP2;ratioP2;P2;SDS_P1;SDS_P2;PMS_P1;PMS_P2;Temp;Humidity;BMP_temperature;BMP_pressure;BME280_temperature;BME280_humidity;BME280_pressure;Samples;Min_cycle;Max_cycle;Signal;HPM_P1;HPM_P2
2021/01/08 00:01:46;;;;;;;5.00;3.70;;;2.40;94.70;;;;;;5074524;28;20064;-73
2021/01/08 00:04:13;;;;;;;9.95;5.10;;;2.40;94.60;;;;;;5074144;28;20124;-73
2021/01/08 00:06:39;;;;;;;4.45;3.92;;;2.40;94.70;;;;;;5074557;28;20041;-73
2021/01/08 00:09:05;;;;;;;3.05;2.75;;;2.40;94.70;;;;;;5074450;28;20376;-73
2021/01/08 00:11:35;;;;;;;6.78;3.92;;;2.40;94.80;;;;;;5074197;28;20090;-73
2021/01/08 00:14:03;;;;;;;5.55;3.30;;;2.40;94.80;;;;;;5073543;28;20555;-73
2021/01/08 00:16:33;;;;;;;8.32;5.85;;;2.40;94.80;;;;;;5073727;28;20487;-73
2021/01/08 00:22:39;;;;;;;5.38;3.83;;;2.40;94.80;;;;;;5073423;28;20082;-73
2021/01/08 00:28:46;;;;;;;6.15;3.65;;;2.40;94.90;;;;;;5073417;28;20047;-73
2021/01/08 00:31:11;;;;;;;3.50;3.17;;;2.40;94.80;;;;;;5073757;28;20464;-72
2021/01/08 00:37:18;;;;;;;4.30;3.70;;;2.40;94.80;;;;;;5073403;28;20085;-73
2021/01/08 00:39:44;;;;;;;4.47;2.67;;;2.40;94.70;;;;;;5073478;28;20041;-73
2021/01/08 00:42:10;;;;;;;5.68;4.38;;;2.40;94.80;;;;;;5073553;28;20036;-73
2021/01/08 00:44:36;;;;;;;3.38;3.08;;;2.40;94.70;;;;;;5073519;28;20048;-73
2021/01/08 00:50:43;;;;;;;4.05;3.58;;;2.30;94.70;;;;;;5073093;28;20110;-73
2021/01/08 00:56:52;;;;;;;4.25;3.08;;;2.40;94.70;;;;;;5072777;28;20132;-73
2021/01/08 01:02:58;;;;;;;5.75;3.10;;;2.30;94.70;;;;;;5072671;28;20031;-73
2021/01/08 01:05:24;;;;;;;6.45;4.05;;;2.30;94.70;;;;;;5072602;28;20036;-73
2021/01/08 01:11:31;;;;;;;3.30;2.15;;;2.30;94.80;;;;;;5072780;28;20082;-73
2021/01/08 01:13:58;;;;;;;2.95;2.35;;;2.30;94.70;;;;;;5072722;28;20115;-72
2021/01/08 01:16:26;;;;;;;3.75;2.47;;;2.30;94.70;;;;;;5072765;28;20087;-73
2021/01/08 01:22:32;;;;;;;3.70;2.60;;;2.30;94.60;;;;;;5072313;28;20058;-73
2021/01/08 01:24:58;;;;;;;3.13;2.45;;;2.30;94.70;;;;;;5071719;28;20475;-73
2021/01/08 01:27:23;;;;;;;4.57;2.72;;;2.40;95.00;;;;;;5072119;28;20110;-72
2021/01/08 01:29:49;;;;;;;2.78;2.20;;;2.30;94.70;;;;;;5071165;28;20405;-73
2021/01/08 01:32:14;;;;;;;4.22;2.30;;;2.30;94.60;;;;;;5071379;28;20131;-73
2021/01/08 01:34:40;;;;;;;3.53;2.67;;;2.30;94.50;;;;;;5072024;28;20064;-73
2021/01/08 01:40:48;;;;;;;3.50;2.30;;;2.30;94.40;;;;;;5072220;28;20040;-73
2021/01/08 01:47:14;;;;;;;6.65;2.63;;;2.30;94.40;;;;;;5072173;28;20031;-73
2021/01/08 01:49:40;;;;;;;3.90;2.15;;;2.20;94.50;;;;;;5070890;28;20115;-72
2021/01/08 01:52:05;;;;;;;3.30;2.67;;;2.20;94.50;;;;;;5072125;28;20402;-73
2021/01/08 01:54:31;;;;;;;4.93;2.72;;;2.20;94.70;;;;;;5071731;28;20119;-73
2021/01/08 01:56:57;;;;;;;5.90;3.13;;;2.20;94.70;;;;;;5071973;28;20055;-72
2021/01/08 02:03:32;;;;;;;3.83;2.47;;;2.20;94.80;;;;;;5072478;28;20035;-72
2021/01/08 02:06:02;;;;;;;3.05;2.25;;;2.20;94.80;;;;;;5072111;28;20045;-73
2021/01/08 02:12:09;;;;;;;2.47;2.15;;;2.10;94.70;;;;;;5071965;28;20039;-73
2021/01/08 02:18:16;;;;;;;5.22;3.05;;;2.10;94.70;;;;;;5071808;28;20479;-72
2021/01/08 02:20:43;;;;;;;4.43;3.47;;;2.10;94.80;;;;;;5072075;28;20530;-72
2021/01/08 02:23:25;;;;;;;4.05;2.80;;;2.10;94.80;;;;;;5071645;28;20044;-72
2021/01/08 02:25:52;;;;;;;5.18;2.53;;;2.10;94.90;;;;;;5072053;28;20055;-72
2021/01/08 02:28:19;;;;;;;2.58;2.30;;;2.10;95.00;;;;;;5071865;28;20043;-72
2021/01/08 02:30:45;;;;;;;6.78;2.47;;;2.20;95.00;;;;;;5071660;28;20075;-72
2021/01/08 02:33:12;;;;;;;3.22;2.20;;;2.20;95.00;;;;;;5071684;28;20033;-72
2021/01/08 02:35:38;;;;;;;4.70;2.33;;;2.20;95.00;;;;;;5071588;28;20036;-72
2021/01/08 02:38:05;;;;;;;4.90;2.53;;;2.30;95.00;;;;;;5071623;28;20479;-72
2021/01/08 02:40:31;;;;;;;2.30;1.98;;;2.20;95.00;;;;;;5071721;28;20044;-72
2021/01/08 02:43:05;;;;;;;6.00;2.80;;;2.20;95.00;;;;;;5071391;28;20524;-73
2021/01/08 02:45:32;;;;;;;3.60;3.20;;;2.20;95.00;;;;;;5070468;28;20144;-73
2021/01/08 02:47:58;;;;;;;4.15;2.95;;;2.20;95.00;;;;;;5071634;28;20044;-72
2021/01/08 02:50:23;;;;;;;4.70;2.55;;;2.20;95.10;;;;;;5071525;28;20097;-73
2021/01/08 02:52:56;;;;;;;3.22;2.50;;;2.20;95.10;;;;;;5071512;28;20550;-72
2021/01/08 02:55:31;;;;;;;3.53;2.78;;;2.30;95.10;;;;;;5071342;28;20183;-73
2021/01/08 03:01:38;;;;;;;3.03;2.22;;;2.20;95.00;;;;;;5071894;28;20032;-73
2021/01/08 03:04:05;;;;;;;4.43;2.40;;;2.20;95.10;;;;;;5071441;28;20044;-72
2021/01/08 03:10:12;;;;;;;2.45;2.15;;;2.20;95.00;;;;;;5071400;28;20031;-73
2021/01/08 03:12:38;;;;;;;3.15;2.00;;;2.30;95.00;;;;;;5071525;28;20033;-72
2021/01/08 03:18:45;;;;;;;2.92;1.98;;;2.30;94.90;;;;;;5072587;28;20450;-73
2021/01/08 03:21:10;;;;;;;2.78;1.80;;;2.30;94.90;;;;;;5074262;28;20037;-73
2021/01/08 03:23:36;;;;;;;2.95;2.60;;;2.20;94.90;;;;;;5074383;28;20093;-72
2021/01/08 03:29:42;;;;;;;2.40;1.60;;;2.30;94.90;;;;;;5075128;28;20119;-73
2021/01/08 03:32:08;;;;;;;4.88;1.85;;;2.30;94.80;;;;;;5075191;28;20119;-72
2021/01/08 03:34:33;;;;;;;2.92;1.67;;;2.30;94.80;;;;;;5074993;28;20135;-73
2021/01/08 03:40:43;;;;;;;3.70;1.38;;;2.30;94.90;;;;;;5074878;28;20031;-73
2021/01/08 03:43:09;;;;;;;3.67;1.20;;;2.30;94.80;;;;;;5074736;28;20060;-72
2021/01/08 03:45:36;;;;;;;5.72;1.48;;;2.20;94.80;;;;;;5074499;28;20043;-72
2021/01/08 03:48:01;;;;;;;2.35;1.80;;;2.30;94.80;;;;;;5074778;28;20040;-72
2021/01/08 03:50:27;;;;;;;4.47;2.47;;;2.20;94.70;;;;;;5074676;28;20115;-72
2021/01/08 03:52:53;;;;;;;4.65;1.45;;;2.20;94.70;;;;;;5074596;28;20040;-72
2021/01/08 03:58:59;;;;;;;3.42;1.35;;;2.20;94.70;;;;;;5074504;28;20078;-72
2021/01/08 04:01:25;;;;;;;2.40;1.92;;;2.20;94.70;;;;;;5073389;28;20399;-73
2021/01/08 04:03:50;;;;;;;2.58;2.05;;;2.10;94.70;;;;;;5073970;28;20047;-72
2021/01/08 04:06:16;;;;;;;11.32;2.40;;;2.10;94.70;;;;;;5074519;28;20052;-73
2021/01/08 04:08:42;;;;;;;3.28;2.25;;;2.10;94.70;;;;;;5074357;28;20037;-73
2021/01/08 04:11:08;;;;;;;3.25;2.28;;;2.10;94.70;;;;;;5074240;28;20036;-73
2021/01/08 04:13:33;;;;;;;2.53;1.75;;;2.10;94.80;;;;;;5073976;28;20429;-73
2021/01/08 04:15:59;;;;;;;4.80;3.17;;;2.10;94.70;;;;;;5074296;28;20486;-72
2021/01/08 04:18:24;;;;;;;3.10;2.22;;;2.10;94.80;;;;;;5074137;28;20037;-72
2021/01/08 04:24:31;;;;;;;4.20;2.95;;;2.10;94.70;;;;;;5073539;28;20551;-72
2021/01/08 04:30:37;;;;;;;2.15;1.92;;;2.10;94.80;;;;;;5073496;28;20516;-72
2021/01/08 04:33:03;;;;;;;3.65;2.35;;;2.10;94.80;;;;;;5074001;28;20032;-72
2021/01/08 04:35:28;;;;;;;3.03;2.47;;;2.10;94.90;;;;;;5073615;28;20463;-72
2021/01/08 04:41:36;;;;;;;2.10;1.90;;;2.10;94.90;;;;;;5073893;28;20106;-72
2021/01/08 04:47:44;;;;;;;2.47;2.08;;;2.10;94.90;;;;;;5073628;28;20047;-73
2021/01/08 04:50:10;;;;;;;4.28;2.60;;;2.10;94.90;;;;;;5073569;28;20032;-73
2021/01/08 04:52:36;;;;;;;4.28;2.40;;;2.10;94.90;;;;;;5073415;28;20043;-72
2021/01/08 04:55:02;;;;;;;3.45;2.10;;;2.10;94.90;;;;;;5073278;28;20115;-72
2021/01/08 04:57:32;;;;;;;3.55;2.60;;;2.10;94.90;;;;;;5073693;28;20072;-72
2021/01/08 05:03:39;;;;;;;2.67;1.38;;;2.10;94.90;;;;;;5073003;28;20441;-73
2021/01/08 05:06:04;;;;;;;5.45;2.10;;;2.20;94.90;;;;;;5073176;28;20044;-72
2021/01/08 05:12:11;;;;;;;2.53;1.98;;;2.20;95.10;;;;;;5073237;28;20115;-72
2021/01/08 05:14:37;;;;;;;3.78;1.73;;;2.10;94.90;;;;;;5072794;28;20119;-72
2021/01/08 05:17:03;;;;;;;2.35;2.15;;;2.20;94.90;;;;;;5073424;28;20048;-72
2021/01/08 05:19:28;;;;;;;1.60;1.50;;;2.20;94.90;;;;;;5073087;28;20115;-73
2021/01/08 05:25:35;;;;;;;2.50;1.50;;;2.20;94.90;;;;;;5072584;28;20513;-72
2021/01/08 05:31:42;;;;;;;2.15;1.63;;;2.20;94.90;;;;;;5073013;28;20398;-73
2021/01/08 05:34:08;;;;;;;3.25;1.98;;;2.20;94.80;;;;;;5072665;28;20047;-73
2021/01/08 05:36:35;;;;;;;3.13;1.42;;;2.20;94.80;;;;;;5072928;28;20108;-72
2021/01/08 05:39:01;;;;;;;6.50;2.67;;;2.20;94.70;;;;;;5072812;28;20502;-72
2021/01/08 05:45:08;;;;;;;3.03;1.70;;;2.20;94.80;;;;;;5072387;28;20055;-73
2021/01/08 05:51:16;;;;;;;1.58;1.48;;;2.20;94.90;;;;;;5072559;28;20039;-73
2021/01/08 05:53:43;;;;;;;3.28;1.25;;;2.20;94.80;;;;;;5072342;28;20501;-72
2021/01/08 05:56:20;;;;;;;3.40;1.55;;;2.20;94.80;;;;;;5072877;28;20048;-73
2021/01/08 05:58:46;;;;;;;2.95;1.55;;;2.20;94.80;;;;;;5072631;28;20068;-72
2021/01/08 06:01:13;;;;;;;1.40;1.10;;;2.30;94.70;;;;;;5072393;28;20075;-72
2021/01/08 06:07:24;;;;;;;1.83;0.93;;;2.20;94.60;;;;;;5072395;28;20074;-72
2021/01/08 06:13:31;;;;;;;1.50;1.20;;;2.20;94.50;;;;;;5071627;28;20039;-72
2021/01/08 06:19:39;;;;;;;2.92;1.58;;;2.20;94.70;;;;;;5072679;28;20101;-72
2021/01/08 06:29:32;;;;;;;1.25;1.00;;;2.30;94.70;;;;;;5072172;28;20489;-72
2021/01/08 06:35:44;;;;;;;1.92;1.52;;;2.30;94.80;;;;;;5072106;28;20489;-72
2021/01/08 06:42:29;;;;;;;2.20;1.83;;;2.30;94.80;;;;;;5071806;28;20035;-73
2021/01/08 06:48:44;;;;;;;3.67;2.17;;;2.30;94.80;;;;;;5071447;28;20082;-72
2021/01/08 06:55:19;;;;;;;4.03;2.05;;;2.30;94.80;;;;;;5075285;28;20097;-73
2021/01/08 07:01:32;;;;;;;3.00;2.10;;;2.30;94.80;;;;;;5075787;28;20040;-72
2021/01/08 07:03:59;;;;;;;2.22;1.60;;;2.30;94.70;;;;;;5075404;28;20072;-73
2021/01/08 07:10:06;;;;;;;2.60;1.77;;;2.30;94.70;;;;;;5075459;28;20086;-73
2021/01/08 07:16:20;;;;;;;3.53;1.75;;;2.40;94.80;;;;;;5075097;28;20063;-73
2021/01/08 07:18:46;;;;;;;3.33;1.40;;;2.40;94.80;;;;;;5075340;28;20041;-72
2021/01/08 07:21:24;;;;;;;2.85;1.45;;;2.40;94.80;;;;;;5075362;28;20111;-72
2021/01/08 07:23:51;;;;;;;3.45;1.77;;;2.30;94.80;;;;;;5075031;28;20135;-72
2021/01/08 07:26:18;;;;;;;2.42;1.95;;;2.30;94.80;;;;;;5075190;28;20127;-72
2021/01/08 07:32:42;;;;;;;2.85;1.35;;;2.30;94.90;;;;;;5075157;28;19923;-73
2021/01/08 07:35:22;;;;;;;4.00;1.65;;;2.40;94.90;;;;;;5075162;28;20044;-73
2021/01/08 07:37:57;;;;;;;1.88;1.10;;;2.40;94.90;;;;;;5074999;28;20044;-72
2021/01/08 07:44:33;;;;;;;3.05;1.80;;;2.40;94.80;;;;;;5074054;28;20089;-73
2021/01/08 07:47:22;;;;;;;1.58;1.45;;;2.40;94.80;;;;;;5075012;28;20036;-73
2021/01/08 07:53:43;;;;;;;4.47;1.42;;;2.40;94.80;;;;;;5073198;28;20113;-73
2021/01/08 07:59:49;;;;;;;3.17;1.50;;;2.40;94.70;;;;;;5073713;28;20027;-73
2021/01/08 08:02:35;;;;;;;1.90;1.25;;;2.40;94.80;;;;;;5072793;28;20044;-73
2021/01/08 08:05:06;;;;;;;1.58;1.25;;;2.40;94.80;;;;;;5072595;28;20123;-73
2021/01/08 08:07:35;;;;;;;3.45;1.48;;;2.40;94.80;;;;;;5073455;28;20089;-73
2021/01/08 08:10:00;;;;;;;1.92;1.50;;;2.40;94.80;;;;;;5073155;28;20066;-72
2021/01/08 08:16:07;;;;;;;2.45;1.95;;;2.40;94.80;;;;;;5073750;28;20386;-73
2021/01/08 08:18:34;;;;;;;5.30;1.70;;;2.40;94.70;;;;;;5074171;28;20098;-73
2021/01/08 08:24:40;;;;;;;2.22;1.50;;;2.40;94.80;;;;;;5073410;28;20097;-73
2021/01/08 08:30:51;;;;;;;24.92;3.10;;;2.40;94.70;;;;;;5073766;28;20051;-73
2021/01/08 08:33:21;;;;;;;14.60;3.88;;;2.40;94.70;;;;;;5073830;28;20040;-73
2021/01/08 08:35:47;;;;;;;7.10;1.95;;;2.40;94.80;;;;;;5072745;28;20515;-73
2021/01/08 08:38:13;;;;;;;12.95;1.70;;;2.40;94.80;;;;;;5073359;28;20116;-73
2021/01/08 08:44:19;;;;;;;11.07;1.90;;;2.40;95.00;;;;;;5073226;28;20111;-73
2021/01/08 08:50:25;;;;;;;2.85;1.65;;;2.40;94.80;;;;;;5073624;28;20106;-73
2021/01/08 08:52:51;;;;;;;3.42;1.33;;;2.50;94.80;;;;;;5073271;28;20502;-73
2021/01/08 08:55:31;;;;;;;2.65;1.63;;;2.50;94.70;;;;;;5073222;28;20071;-73
2021/01/08 08:58:03;;;;;;;2.90;1.98;;;2.50;94.70;;;;;;5073311;28;20041;-73
2021/01/08 09:00:30;;;;;;;23.65;3.13;;;2.60;94.70;;;;;;5072967;28;20033;-73
2021/01/08 09:02:56;;;;;;;3.35;1.67;;;2.50;94.70;;;;;;5073250;28;20076;-73
2021/01/08 09:05:29;;;;;;;3.13;2.03;;;2.60;94.70;;;;;;5073142;28;20087;-73
2021/01/08 09:11:41;;;;;;;2.75;1.48;;;2.60;94.70;;;;;;5072857;28;20043;-73
2021/01/08 09:14:12;;;;;;;3.80;1.27;;;2.60;94.60;;;;;;5072997;28;20041;-73
2021/01/08 09:20:21;;;;;;;3.40;1.20;;;2.70;94.60;;;;;;5073198;28;20031;-73
2021/01/08 09:22:47;;;;;;;1.70;1.40;;;2.70;94.50;;;;;;5072646;28;20070;-73
2021/01/08 09:25:16;;;;;;;2.80;1.45;;;2.70;94.60;;;;;;5072593;28;20057;-73
2021/01/08 09:27:42;;;;;;;2.35;1.70;;;2.70;94.50;;;;;;5072916;28;20071;-74
2021/01/08 09:30:12;;;;;;;17.70;2.65;;;2.70;94.50;;;;;;5072634;28;20090;-73
2021/01/08 09:36:31;;;;;;;4.10;1.40;;;2.80;94.50;;;;;;5072552;28;20036;-73
2021/01/08 09:39:05;;;;;;;15.65;2.53;;;2.80;94.50;;;;;;5072591;28;20032;-73
2021/01/08 09:45:21;;;;;;;2.30;1.50;;;2.80;94.40;;;;;;5072382;28;20047;-73
2021/01/08 09:47:47;;;;;;;25.10;2.78;;;2.90;94.40;;;;;;5072652;28;20474;-73
2021/01/08 09:50:32;;;;;;;3.05;1.55;;;2.90;94.50;;;;;;5072436;28;20032;-73
2021/01/08 09:56:38;;;;;;;3.78;2.10;;;3.00;94.40;;;;;;5072372;28;20039;-73
2021/01/08 10:02:48;;;;;;;1.67;1.40;;;3.20;94.50;;;;;;5072611;28;20647;-73
2021/01/08 10:05:19;;;;;;;2.60;2.03;;;3.30;94.60;;;;;;5072075;28;20043;-73
2021/01/08 10:07:47;;;;;;;2.22;1.70;;;3.40;94.60;;;;;;5072508;28;20040;-73
2021/01/08 10:14:04;;;;;;;2.10;1.88;;;3.50;94.40;;;;;;5072290;28;20038;-73
2021/01/08 10:16:37;;;;;;;5.72;2.00;;;3.50;94.30;;;;;;5072296;28;20036;-73
2021/01/08 10:19:04;;;;;;;2.67;1.77;;;3.60;94.40;;;;;;5072582;28;20048;-73
2021/01/08 10:21:30;;;;;;;4.10;1.85;;;3.60;94.30;;;;;;5072217;28;20067;-73
2021/01/08 10:27:37;;;;;;;2.72;2.00;;;3.70;94.10;;;;;;5073555;28;20066;-73
2021/01/08 10:33:44;;;;;;;10.35;2.25;;;3.70;93.90;;;;;;5076124;28;20031;-73
2021/01/08 10:36:10;;;;;;;15.05;2.83;;;3.70;93.80;;;;;;5076277;28;20047;-73
2021/01/08 10:42:16;;;;;;;6.45;2.47;;;3.90;93.90;;;;;;5076243;28;20035;-73
2021/01/08 10:48:22;;;;;;;5.70;2.22;;;3.90;93.70;;;;;;5075956;28;20027;-73
2021/01/08 10:50:48;;;;;;;2.90;2.30;;;4.00;94.10;;;;;;5075937;28;20041;-73
2021/01/08 10:56:54;;;;;;;2.92;1.50;;;4.10;93.70;;;;;;5075599;28;20078;-74
2021/01/08 11:03:00;;;;;;;3.00;1.42;;;4.10;93.50;;;;;;5075475;28;20028;-73
2021/01/08 11:05:26;;;;;;;1.98;1.77;;;4.10;93.30;;;;;;5075600;28;20040;-73
2021/01/08 11:07:52;;;;;;;4.18;1.70;;;4.10;93.20;;;;;;5075570;28;20064;-74
2021/01/08 11:10:17;;;;;;;2.95;1.35;;;4.10;93.30;;;;;;5075474;28;20041;-73
2021/01/08 11:16:25;;;;;;;2.60;1.60;;;4.10;93.20;;;;;;5074666;28;20386;-73
2021/01/08 11:18:50;;;;;;;1.63;1.38;;;4.10;92.70;;;;;;5075054;28;20032;-73
2021/01/08 11:21:22;;;;;;;1.40;1.30;;;4.10;92.90;;;;;;5075233;28;20410;-73
2021/01/08 11:23:49;;;;;;;1.88;1.33;;;4.20;93.30;;;;;;5074356;28;20036;-73
2021/01/08 11:26:26;;;;;;;18.13;4.07;;;4.20;93.10;;;;;;5074926;28;20068;-74
2021/01/08 11:28:53;;;;;;;5.35;1.48;;;4.30;93.10;;;;;;5073082;28;20041;-73
2021/01/08 11:35:00;;;;;;;4.50;1.58;;;4.70;93.20;;;;;;5075027;28;20399;-74
2021/01/08 11:41:06;;;;;;;12.48;1.60;;;5.00;92.30;;;;;;5074755;28;20080;-74
2021/01/08 11:47:12;;;;;;;6.78;1.80;;;5.60;91.60;;;;;;5074770;28;20063;-74
2021/01/08 11:53:18;;;;;;;3.70;1.35;;;5.80;90.40;;;;;;5074523;28;20116;-73
2021/01/08 11:59:38;;;;;;;1.88;1.65;;;5.80;90.10;;;;;;5074489;28;20035;-73
2021/01/08 12:02:04;;;;;;;2.50;1.30;;;5.80;90.50;;;;;;5073944;28;20040;-74
2021/01/08 12:08:11;;;;;;;2.22;1.60;;;6.20;90.20;;;;;;5074343;28;20505;-74
2021/01/08 12:14:17;;;;;;;3.05;1.67;;;6.60;89.30;;;;;;5074195;28;20059;-74
2021/01/08 12:20:23;;;;;;;1.23;0.98;;;6.60;87.70;;;;;;5074501;28;20031;-74
2021/01/08 12:26:30;;;;;;;2.67;1.48;;;6.60;86.80;;;;;;5074150;28;20042;-74
2021/01/08 12:28:56;;;;;;;1.73;1.20;;;6.60;87.00;;;;;;5073906;28;20098;-74
2021/01/08 12:35:03;;;;;;;2.80;2.00;;;6.30;85.60;;;;;;5074020;28;20520;-74
2021/01/08 12:41:10;;;;;;;2.03;1.52;;;6.20;87.20;;;;;;5073694;28;20394;-73
2021/01/08 12:43:36;;;;;;;2.20;1.42;;;6.10;87.60;;;;;;5073925;28;20044;-73
2021/01/08 12:49:42;;;;;;;3.22;1.45;;;5.90;87.60;;;;;;5073043;28;20063;-73
2021/01/08 12:55:49;;;;;;;3.75;1.60;;;5.70;88.10;;;;;;5073424;28;20036;-73
2021/01/08 12:58:14;;;;;;;4.00;1.50;;;5.70;89.10;;;;;;5073493;28;20210;-73
2021/01/08 13:00:40;;;;;;;4.18;1.52;;;5.70;89.30;;;;;;5073440;28;20049;-74
2021/01/08 13:06:46;;;;;;;4.78;1.70;;;5.90;89.60;;;;;;5072632;28;20114;-74
2021/01/08 13:12:55;;;;;;;5.60;1.52;;;5.90;87.80;;;;;;5073329;28;20039;-73
2021/01/08 13:15:21;;;;;;;1.83;1.42;;;5.90;87.90;;;;;;5072896;28;20433;-74
2021/01/08 13:17:47;;;;;;;2.60;1.60;;;5.80;88.20;;;;;;5073016;28;20108;-73
2021/01/08 13:20:13;;;;;;;2.47;1.85;;;5.80;88.20;;;;;;5072926;28;20167;-74
2021/01/08 13:22:40;;;;;;;3.17;1.55;;;5.80;89.20;;;;;;5072632;28;20359;-73
2021/01/08 13:25:06;;;;;;;5.45;2.05;;;5.70;89.10;;;;;;5072463;28;20036;-74
2021/01/08 13:27:35;;;;;;;7.18;2.30;;;5.80;89.70;;;;;;5072151;28;20050;-73
2021/01/08 13:33:42;;;;;;;2.67;1.58;;;5.80;90.20;;;;;;5072157;28;20035;-74
2021/01/08 13:39:48;;;;;;;1.77;1.23;;;5.30;88.00;;;;;;5072601;28;20432;-73
2021/01/08 13:45:54;;;;;;;2.00;1.55;;;5.60;88.70;;;;;;5072615;28;20086;-73
2021/01/08 13:52:03;;;;;;;3.95;1.77;;;5.50;89.10;;;;;;5072617;28;20074;-74
2021/01/08 13:58:10;;;;;;;3.00;1.70;;;5.40;89.60;;;;;;5072190;28;20035;-73
2021/01/08 14:04:16;;;;;;;4.82;1.90;;;5.30;90.10;;;;;;5071873;28;20086;-73
2021/01/08 14:06:43;;;;;;;2.15;1.83;;;5.30;90.20;;;;;;5071986;28;20036;-73
2021/01/08 14:12:49;;;;;;;3.22;1.85;;;5.20;90.00;;;;;;5072051;28;20051;-73
2021/01/08 14:18:56;;;;;;;4.40;2.13;;;5.10;90.10;;;;;;5072215;28;20127;-73
2021/01/08 14:21:35;;;;;;;4.25;2.17;;;5.10;90.20;;;;;;5072279;28;20507;-73
2021/01/08 14:27:42;;;;;;;2.63;2.10;;;5.10;90.10;;;;;;5071462;28;20057;-73
2021/01/08 14:33:48;;;;;;;2.40;1.85;;;4.90;90.40;;;;;;5071642;28;20127;-73
2021/01/08 14:39:55;;;;;;;2.50;1.58;;;4.80;90.90;;;;;;5071291;28;20169;-74
2021/01/08 14:42:20;;;;;;;3.53;2.20;;;4.80;91.20;;;;;;5072267;28;20567;-74
2021/01/08 14:48:26;;;;;;;5.78;2.25;;;4.80;91.20;;;;;;5071642;28;20133;-74
2021/01/08 14:50:52;;;;;;;3.53;1.90;;;4.70;90.90;;;;;;5071418;28;20041;-74
2021/01/08 14:53:18;;;;;;;4.10;2.03;;;4.70;91.00;;;;;;5071765;28;20032;-74
2021/01/08 14:59:24;;;;;;;10.80;2.50;;;4.60;90.90;;;;;;5072041;28;20074;-74
2021/01/08 15:01:57;;;;;;;6.10;2.47;;;4.50;90.90;;;;;;5070492;28;20555;-74
2021/01/08 15:04:23;;;;;;;9.30;2.72;;;4.40;91.00;;;;;;5071471;28;20091;-73
2021/01/08 15:06:48;;;;;;;4.40;2.40;;;4.40;91.00;;;;;;5071702;28;20447;-74
2021/01/08 15:09:14;;;;;;;3.67;2.63;;;4.40;91.20;;;;;;5070975;28;20041;-74
2021/01/08 15:11:40;;;;;;;3.60;2.03;;;4.30;91.30;;;;;;5071758;28;20475;-74
2021/01/08 15:17:47;;;;;;;4.25;1.85;;;4.30;91.50;;;;;;5075232;28;20032;-74
2021/01/08 15:20:12;;;;;;;6.95;1.73;;;4.20;91.50;;;;;;5074921;28;20036;-74
2021/01/08 15:22:38;;;;;;;9.88;2.22;;;4.20;91.50;;;;;;5074641;28;20116;-74
2021/01/08 15:25:04;;;;;;;2.97;2.40;;;4.20;91.50;;;;;;5074939;28;20060;-74
2021/01/08 15:27:30;;;;;;;3.80;1.90;;;4.20;91.60;;;;;;5074618;28;20515;-74
2021/01/08 15:29:56;;;;;;;5.45;2.42;;;4.10;91.50;;;;;;5075409;28;20075;-74
2021/01/08 15:36:04;;;;;;;3.35;2.17;;;4.00;91.70;;;;;;5074730;28;20082;-74
2021/01/08 15:38:32;;;;;;;4.75;2.28;;;4.00;91.60;;;;;;5074556;28;20033;-74
2021/01/08 15:41:35;;;;;;;3.40;2.20;;;4.00;91.60;;;;;;5074528;28;20064;-73
2021/01/08 15:44:00;;;;;;;3.75;2.80;;;4.00;91.60;;;;;;5074698;28;20629;-74
2021/01/08 15:46:27;;;;;;;4.05;2.47;;;3.90;91.70;;;;;;5071472;28;20047;-73
2021/01/08 15:48:53;;;;;;;4.38;2.60;;;3.90;91.90;;;;;;5067498;28;20041;-74
2021/01/08 15:51:27;;;;;;;7.55;2.67;;;3.80;92.00;;;;;;5070581;28;20033;-74
2021/01/08 15:53:52;;;;;;;4.05;2.35;;;3.80;91.90;;;;;;5070050;28;20037;-74
2021/01/08 15:56:18;;;;;;;3.58;2.22;;;3.80;91.90;;;;;;5069167;28;20052;-74
2021/01/08 15:58:44;;;;;;;6.00;2.53;;;3.80;91.90;;;;;;5070774;28;20041;-73
2021/01/08 16:01:09;;;;;;;5.43;2.22;;;3.70;91.90;;;;;;5069700;28;20067;-74
2021/01/08 16:03:35;;;;;;;3.60;2.25;;;3.60;91.90;;;;;;5068553;28;20064;-74
2021/01/08 16:06:01;;;;;;;2.95;2.30;;;3.60;91.90;;;;;;5070510;28;20118;-73
2021/01/08 16:08:27;;;;;;;4.45;2.22;;;3.50;92.10;;;;;;5071307;28;20039;-73
2021/01/08 16:10:52;;;;;;;3.92;1.83;;;3.50;92.10;;;;;;5071728;28;20056;-73
2021/01/08 16:13:19;;;;;;;6.80;2.22;;;3.50;92.30;;;;;;5069288;28;20032;-73
2021/01/08 16:15:46;;;;;;;3.80;1.90;;;3.40;92.30;;;;;;5072825;28;20147;-73
2021/01/08 16:18:12;;;;;;;3.15;1.95;;;3.40;92.20;;;;;;5071205;28;20036;-73
2021/01/08 16:20:38;;;;;;;4.18;2.30;;;3.30;92.20;;;;;;5071713;28;20024;-73
2021/01/08 16:23:04;;;;;;;3.60;2.10;;;3.30;92.30;;;;;;5073171;28;20044;-73
2021/01/08 16:25:29;;;;;;;2.63;2.33;;;3.40;92.40;;;;;;5072131;28;20122;-73
2021/01/08 16:27:55;;;;;;;2.72;2.10;;;3.30;92.30;;;;;;5073477;28;20108;-73
2021/01/08 16:30:21;;;;;;;2.95;2.30;;;3.40;92.30;;;;;;5072200;28;20068;-73
2021/01/08 16:32:47;;;;;;;6.30;2.03;;;3.40;92.20;;;;;;5069788;28;20419;-74
2021/01/08 16:35:14;;;;;;;2.80;1.98;;;3.30;92.10;;;;;;5068968;28;20067;-75
2021/01/08 16:37:41;;;;;;;2.60;2.00;;;3.30;92.10;;;;;;5069882;28;20646;-74
2021/01/08 16:40:09;;;;;;;3.38;2.42;;;3.20;92.20;;;;;;5071127;28;20028;-74
2021/01/08 16:42:35;;;;;;;5.90;2.40;;;3.10;92.20;;;;;;5069900;28;20040;-74
2021/01/08 16:45:03;;;;;;;4.75;2.88;;;3.10;92.30;;;;;;5069268;28;20036;-74
2021/01/08 16:47:29;;;;;;;3.65;2.30;;;3.10;92.40;;;;;;5069203;28;20407;-74
2021/01/08 16:49:55;;;;;;;3.22;2.00;;;3.00;92.50;;;;;;5070136;28;20048;-74
2021/01/08 16:52:21;;;;;;;5.78;2.50;;;3.00;92.70;;;;;;5070076;28;20036;-74
2021/01/08 16:54:47;;;;;;;3.38;2.30;;;3.00;92.60;;;;;;5069168;28;20090;-74
2021/01/08 16:57:14;;;;;;;6.47;2.70;;;3.00;92.70;;;;;;5068748;28;20044;-74
2021/01/08 16:59:40;;;;;;;3.90;2.33;;;3.00;92.70;;;;;;5064800;28;20048;-74
2021/01/08 17:02:10;;;;;;;2.88;2.13;;;3.00;92.80;;;;;;5065738;28;20046;-74
2021/01/08 17:04:38;;;;;;;3.70;2.30;;;3.00;92.80;;;;;;5065316;28;20048;-74
2021/01/08 17:07:05;;;;;;;2.78;2.10;;;3.00;92.80;;;;;;5066120;28;20076;-74
2021/01/08 17:09:31;;;;;;;6.38;2.42;;;3.00;92.80;;;;;;5068399;28;20046;-74
2021/01/08 17:11:57;;;;;;;3.67;2.45;;;2.90;92.80;;;;;;5069216;28;20036;-74
2021/01/08 17:14:23;;;;;;;4.40;2.83;;;2.90;92.80;;;;;;5060409;28;20487;-74
2021/01/08 17:16:48;;;;;;;5.40;3.10;;;2.90;92.90;;;;;;5063975;28;20039;-74
2021/01/08 17:19:14;;;;;;;5.40;3.38;;;2.90;92.90;;;;;;5066223;28;20040;-74
2021/01/08 17:21:41;;;;;;;4.43;3.22;;;2.90;93.00;;;;;;5069910;28;20079;-74
2021/01/08 17:24:09;;;;;;;4.45;3.63;;;2.90;93.10;;;;;;5064926;28;20036;-74
2021/01/08 17:26:42;;;;;;;6.90;3.15;;;2.80;93.10;;;;;;5064581;28;20106;-74
2021/01/08 17:29:16;;;;;;;4.85;3.47;;;2.80;93.20;;;;;;5065720;28;20058;-74
2021/01/08 17:31:43;;;;;;;5.53;3.25;;;2.80;93.30;;;;;;5068294;28;20129;-74
2021/01/08 17:34:10;;;;;;;4.25;3.40;;;2.80;93.30;;;;;;5067198;28;20056;-74
2021/01/08 17:36:36;;;;;;;3.80;2.85;;;2.80;93.40;;;;;;5063292;28;20032;-74
2021/01/08 17:39:04;;;;;;;4.78;2.35;;;2.80;93.30;;;;;;5067769;28;20035;-74
2021/01/08 17:41:31;;;;;;;6.05;2.88;;;2.80;93.20;;;;;;5068553;28;20475;-74
2021/01/08 17:43:56;;;;;;;3.25;2.80;;;2.80;93.20;;;;;;5064439;28;20041;-74
2021/01/08 17:46:29;;;;;;;4.72;2.72;;;2.80;93.10;;;;;;5066684;28;20040;-74
2021/01/08 17:49:07;;;;;;;5.80;2.90;;;2.70;93.10;;;;;;5065283;28;20056;-74
2021/01/08 17:51:33;;;;;;;4.07;2.97;;;2.70;93.10;;;;;;5085038;28;20037;-75
2021/01/08 17:53:59;;;;;;;6.18;2.67;;;2.70;93.20;;;;;;5079662;28;20039;-75
2021/01/08 17:56:36;;;;;;;5.15;2.22;;;2.70;93.20;;;;;;5081385;28;20113;-74
2021/01/08 17:59:14;;;;;;;4.32;3.00;;;2.60;93.10;;;;;;5081411;28;20098;-74
2021/01/08 18:01:42;;;;;;;5.50;2.60;;;2.70;93.30;;;;;;5083595;28;20101;-74
2021/01/08 18:04:18;;;;;;;3.72;2.72;;;2.70;93.20;;;;;;5080520;28;20048;-74
2021/01/08 18:06:44;;;;;;;;;;;2.70;93.20;;;;;;5070698;28;20040;-74
2021/01/08 18:09:10;;;;;;;4.65;3.30;;;2.60;93.20;;;;;;5065774;28;20526;-74
2021/01/08 18:11:35;;;;;;;5.68;3.10;;;2.60;93.30;;;;;;5065895;28;20048;-74
2021/01/08 18:14:01;;;;;;;3.90;3.28;;;2.60;93.30;;;;;;5067907;28;20124;-74
2021/01/08 18:16:27;;;;;;;5.38;3.20;;;2.60;93.30;;;;;;5065394;28;20032;-74
2021/01/08 18:18:53;;;;;;;3.70;2.97;;;2.60;93.20;;;;;;5066446;28;20101;-74
2021/01/08 18:21:28;;;;;;;5.82;3.75;;;2.60;93.10;;;;;;5068048;28;20032;-74
2021/01/08 18:23:54;;;;;;;4.38;3.17;;;2.50;93.20;;;;;;5063614;28;20421;-74
2021/01/08 18:26:29;;;;;;;6.68;4.03;;;2.50;93.20;;;;;;5063045;28;20504;-74
2021/01/08 18:28:55;;;;;;;5.05;3.58;;;2.40;93.20;;;;;;5066818;28;20070;-74
2021/01/08 18:31:20;;;;;;;6.05;3.53;;;2.40;93.30;;;;;;5067306;28;20171;-74
2021/01/08 18:33:46;;;;;;;5.00;3.95;;;2.40;93.30;;;;;;5065429;28;20529;-74
2021/01/08 18:36:12;;;;;;;5.43;3.50;;;2.30;93.30;;;;;;5068150;28;20040;-74
2021/01/08 18:38:38;;;;;;;6.40;3.78;;;2.30;93.40;;;;;;5067382;28;20040;-74
2021/01/08 18:41:03;;;;;;;8.98;4.10;;;2.30;93.30;;;;;;5067805;28;20046;-74
2021/01/08 18:43:29;;;;;;;8.07;3.97;;;2.30;93.50;;;;;;5064023;28;20530;-73
2021/01/08 18:45:55;;;;;;;6.00;4.05;;;2.30;93.50;;;;;;5069495;28;20072;-74
2021/01/08 18:48:20;;;;;;;6.50;3.85;;;2.30;93.50;;;;;;5066631;28;20115;-74